createdAt,value
2018-09-02T00:02:25.758Z,92.80
2018-09-02T00:04:53.914Z,92.90
2018-09-02T00:07:22.082Z,92.90
2018-09-02T00:09:50.163Z,92.80
2018-09-02T00:12:18.411Z,92.90
2018-09-02T00:14:46.554Z,92.80
2018-09-02T00:17:14.718Z,92.80
2018-09-02T00:19:42.882Z,92.80
2018-09-02T00:22:10.999Z,92.80
2018-09-02T00:24:39.178Z,92.80
2018-09-02T00:27:07.321Z,92.80
2018-09-02T00:29:35.425Z,92.70
2018-09-02T00:32:03.602Z,92.70
2018-09-02T00:34:31.721Z,92.80
2018-09-02T00:36:59.869Z,92.80
2018-09-02T00:39:28.078Z,92.80
2018-09-02T00:41:56.188Z,92.80
2018-09-02T00:44:24.350Z,93.10
2018-09-02T00:46:52.743Z,92.80
2018-09-02T00:49:20.944Z,92.80
2018-09-02T00:51:49.107Z,92.80
2018-09-02T00:54:17.395Z,92.80
2018-09-02T00:56:45.582Z,92.80
2018-09-02T00:59:13.703Z,92.80
2018-09-02T01:01:41.879Z,92.80
2018-09-02T01:04:09.987Z,92.80
2018-09-02T01:06:38.352Z,92.80
2018-09-02T01:09:07.356Z,92.80
2018-09-02T01:11:35.611Z,93.10
2018-09-02T01:14:03.781Z,92.80
2018-09-02T01:16:32.110Z,92.80
2018-09-02T01:19:00.574Z,92.70
2018-09-02T01:24:07.723Z,92.80
2018-09-02T01:26:35.906Z,92.80
2018-09-02T01:29:04.003Z,92.90
2018-09-02T01:31:32.172Z,92.80
2018-09-02T01:34:00.412Z,92.80
2018-09-02T01:36:28.664Z,92.70
2018-09-02T01:38:56.839Z,92.70
2018-09-02T01:41:24.963Z,92.70
2018-09-02T01:43:53.139Z,92.70
2018-09-02T01:46:21.298Z,92.70
2018-09-02T01:48:49.490Z,92.70
2018-09-02T01:51:17.651Z,92.80
2018-09-02T01:53:45.856Z,92.70
2018-09-02T01:56:14.074Z,92.80
2018-09-02T01:58:42.303Z,92.70
2018-09-02T02:01:10.454Z,92.70
2018-09-02T02:03:38.636Z,92.70
2018-09-02T02:06:06.946Z,92.70
2018-09-02T02:08:35.221Z,92.70
2018-09-02T02:11:03.359Z,92.80
2018-09-02T02:13:32.122Z,92.80
2018-09-02T02:16:00.286Z,92.80
2018-09-02T02:18:28.484Z,92.70
2018-09-02T02:20:56.608Z,92.50
2018-09-02T02:23:24.795Z,92.70
2018-09-02T02:25:52.942Z,92.70
2018-09-02T02:28:21.759Z,92.70
2018-09-02T02:30:49.998Z,92.70
2018-09-02T02:33:18.355Z,92.70
2018-09-02T02:35:46.561Z,92.60
2018-09-02T02:38:15.008Z,92.60
2018-09-02T02:40:43.166Z,92.70
2018-09-02T02:43:11.374Z,92.70
2018-09-02T02:45:39.547Z,92.70
2018-09-02T02:48:07.774Z,92.60
2018-09-02T02:50:35.958Z,92.60
2018-09-02T02:53:05.221Z,92.60
2018-09-02T02:55:34.738Z,92.60
2018-09-02T02:58:03.112Z,92.60
2018-09-02T03:00:31.990Z,92.60
2018-09-02T03:03:00.667Z,92.60
2018-09-02T03:05:29.137Z,92.60
2018-09-02T03:07:57.244Z,92.60
2018-09-02T03:10:25.494Z,92.60
2018-09-02T03:12:53.623Z,92.60
2018-09-02T03:17:59.865Z,92.60
2018-09-02T03:20:28.098Z,92.60
2018-09-02T03:22:56.792Z,92.90
2018-09-02T03:25:25.009Z,92.60
2018-09-02T03:27:53.174Z,92.60
2018-09-02T03:30:21.323Z,92.60
2018-09-02T03:32:49.549Z,92.60
2018-09-02T03:35:17.734Z,92.60
2018-09-02T03:37:45.939Z,92.50
2018-09-02T03:40:14.046Z,92.60
2018-09-02T03:42:42.344Z,92.50
2018-09-02T03:45:10.648Z,92.50
2018-09-02T03:47:38.956Z,92.50
2018-09-02T03:50:07.484Z,92.50
2018-09-02T03:52:35.749Z,92.50
2018-09-02T03:55:03.993Z,92.60
2018-09-02T03:57:32.146Z,92.40
2018-09-02T04:00:00.314Z,92.20
2018-09-02T04:02:28.646Z,92.20
2018-09-02T04:04:57.040Z,92.20
2018-09-02T04:07:25.515Z,92.20
2018-09-02T04:09:53.687Z,92.30
2018-09-02T04:12:22.083Z,92.20
2018-09-02T04:14:50.235Z,92.30
2018-09-02T04:17:18.500Z,92.30
2018-09-02T04:19:46.866Z,92.30
2018-09-02T04:22:15.119Z,92.30
2018-09-02T04:24:43.256Z,92.30
2018-09-02T04:27:11.569Z,92.30
2018-09-02T04:29:39.741Z,92.30
2018-09-02T04:32:08.057Z,92.30
2018-09-02T04:34:36.301Z,92.40
2018-09-02T04:37:04.495Z,92.40
2018-09-02T04:39:32.639Z,92.30
2018-09-02T04:42:00.946Z,92.30
2018-09-02T04:44:29.155Z,92.30
2018-09-02T04:46:57.363Z,92.30
2018-09-02T04:49:25.739Z,92.30
2018-09-02T04:51:53.959Z,92.30
2018-09-02T04:54:22.419Z,92.30
2018-09-02T04:56:50.511Z,92.30
2018-09-02T04:59:18.729Z,92.30
2018-09-02T05:01:46.987Z,92.30
2018-09-02T05:04:15.299Z,92.20
2018-09-02T05:06:44.235Z,92.20
2018-09-02T05:09:12.575Z,92.20
2018-09-02T05:11:41.062Z,92.20
2018-09-02T05:14:09.838Z,92.20
2018-09-02T05:16:37.928Z,92.20
2018-09-02T05:19:06.106Z,92.10
2018-09-02T05:21:34.207Z,92.10
2018-09-02T05:24:02.391Z,92.10
2018-09-02T05:26:30.721Z,92.10
2018-09-02T05:28:58.963Z,92.10
2018-09-02T05:31:27.168Z,92.10
2018-09-02T05:33:55.315Z,92.10
2018-09-02T05:36:23.539Z,92.00
2018-09-02T05:41:31.995Z,92.00
2018-09-02T05:44:00.195Z,92.00
2018-09-02T05:46:28.402Z,91.90
2018-09-02T05:48:56.803Z,91.90
2018-09-02T05:51:24.971Z,91.90
2018-09-02T05:53:53.139Z,91.90
2018-09-02T05:56:21.370Z,91.90
2018-09-02T05:58:49.659Z,91.80
2018-09-02T06:01:17.900Z,91.80
2018-09-02T06:03:46.291Z,91.90
2018-09-02T06:06:14.453Z,91.80
2018-09-02T06:08:42.750Z,91.80
2018-09-02T06:11:11.038Z,91.80
2018-09-02T06:13:39.231Z,91.80
2018-09-02T06:16:07.484Z,91.80
2018-09-02T06:18:35.853Z,91.80
2018-09-02T06:21:04.149Z,91.70
2018-09-02T06:28:32.332Z,91.70
2018-09-02T06:31:01.520Z,92.00
2018-09-02T06:33:29.870Z,91.70
2018-09-02T06:35:58.281Z,91.70
2018-09-02T06:38:26.532Z,91.60
2018-09-02T06:40:54.946Z,91.50
2018-09-02T06:43:23.110Z,91.50
2018-09-02T06:45:51.413Z,91.50
2018-09-02T06:48:22.282Z,91.50
2018-09-02T06:50:50.668Z,91.40
2018-09-02T06:53:19.646Z,91.40
2018-09-02T06:55:48.069Z,91.40
2018-09-02T06:58:16.210Z,91.30
2018-09-02T07:00:44.495Z,91.40
2018-09-02T07:03:12.861Z,91.20
2018-09-02T07:08:19.167Z,91.20
2018-09-02T07:10:50.512Z,91.20
2018-09-02T07:13:18.800Z,91.20
2018-09-02T07:15:46.921Z,91.10
2018-09-02T07:18:15.119Z,91.10
2018-09-02T07:20:43.464Z,91.10
2018-09-02T07:23:12.272Z,91.10
2018-09-02T07:25:40.519Z,91.00
2018-09-02T07:28:08.754Z,91.00
2018-09-02T07:30:36.918Z,91.10
2018-09-02T07:33:05.310Z,91.00
2018-09-02T07:35:33.450Z,91.00
2018-09-02T07:38:01.636Z,91.00
2018-09-02T07:40:29.819Z,91.00
2018-09-02T07:42:57.941Z,91.00
2018-09-02T07:45:26.154Z,91.00
2018-09-02T07:47:54.362Z,91.00
2018-09-02T07:50:22.622Z,91.00
2018-09-02T07:52:50.803Z,90.90
2018-09-02T07:55:19.056Z,91.00
2018-09-02T07:57:47.199Z,91.00
2018-09-02T08:00:15.352Z,91.00
2018-09-02T08:02:43.517Z,90.90
2018-09-02T08:05:11.602Z,91.30
2018-09-02T08:07:39.719Z,91.00
2018-09-02T08:10:08.893Z,91.00
2018-09-02T08:12:37.164Z,90.90
2018-09-02T08:15:05.259Z,91.00
2018-09-02T08:17:33.445Z,91.10
2018-09-02T08:20:01.707Z,91.20
2018-09-02T08:22:30.353Z,91.40
2018-09-02T08:24:58.512Z,91.50
2018-09-02T08:27:26.644Z,91.70
2018-09-02T08:29:54.831Z,91.90
2018-09-02T08:32:22.916Z,92.00
2018-09-02T08:34:50.970Z,92.20
2018-09-02T08:37:19.152Z,92.60
2018-09-02T08:39:47.258Z,91.80
2018-09-02T08:42:15.342Z,91.70
2018-09-02T08:44:43.477Z,92.00
2018-09-02T08:47:11.570Z,92.10
2018-09-02T08:49:39.690Z,92.40
2018-09-02T08:52:08.056Z,93.60
2018-09-02T08:54:36.167Z,94.80
2018-09-02T08:57:04.261Z,94.90
2018-09-02T08:59:32.331Z,95.30
2018-09-02T09:02:00.571Z,95.40
2018-09-02T09:04:28.658Z,95.50
2018-09-02T09:06:56.730Z,95.50
2018-09-02T09:09:24.799Z,95.30
2018-09-02T09:11:52.907Z,95.30
2018-09-02T09:14:21.312Z,95.40
2018-09-02T09:16:49.552Z,95.30
2018-09-02T09:19:17.506Z,95.20
2018-09-02T09:21:45.670Z,95.20
2018-09-02T09:24:13.715Z,95.00
2018-09-02T09:26:41.820Z,95.00
2018-09-02T09:29:09.929Z,94.90
2018-09-02T09:31:38.034Z,94.70
2018-09-02T09:34:06.101Z,94.50
2018-09-02T09:36:34.161Z,94.50
2018-09-02T09:39:02.288Z,94.50
2018-09-02T09:41:30.406Z,94.50
2018-09-02T09:48:57.222Z,94.30
2018-09-02T09:51:25.361Z,94.20
2018-09-02T09:53:53.495Z,94.20
2018-09-02T09:56:21.587Z,94.10
2018-09-02T09:58:49.738Z,94.30
2018-09-02T10:01:17.855Z,94.10
2018-09-02T10:03:45.954Z,94.20
2018-09-02T10:06:14.011Z,94.50
2018-09-02T10:08:42.139Z,94.00
2018-09-02T10:11:10.282Z,93.80
2018-09-02T10:13:38.518Z,93.90
2018-09-02T10:16:06.800Z,93.90
2018-09-02T10:18:34.924Z,93.10
2018-09-02T10:21:03.123Z,92.70
2018-09-02T10:23:31.262Z,93.50
2018-09-02T10:25:59.699Z,93.20
2018-09-02T10:28:27.817Z,93.10
2018-09-02T10:30:56.043Z,93.50
2018-09-02T10:33:26.485Z,92.20
2018-09-02T10:35:55.312Z,91.70
2018-09-02T10:38:24.028Z,92.10
2018-09-02T10:40:53.097Z,92.80
2018-09-02T10:43:21.227Z,92.90
2018-09-02T10:45:52.484Z,92.70
2018-09-02T10:48:20.750Z,92.40
2018-09-02T10:50:48.915Z,92.20
2018-09-02T10:53:17.066Z,91.80
2018-09-02T10:55:45.351Z,91.60
2018-09-02T10:58:13.546Z,91.50
2018-09-02T11:00:41.711Z,92.10
2018-09-02T11:03:09.823Z,92.40
2018-09-02T11:05:38.007Z,92.40
2018-09-02T11:08:06.146Z,92.20
2018-09-02T11:10:34.315Z,92.40
2018-09-02T11:13:02.525Z,90.90
2018-09-02T11:15:30.650Z,91.80
2018-09-02T11:17:59.783Z,91.10
2018-09-02T11:20:28.526Z,91.50
2018-09-02T11:33:29.859Z,91.50
2018-09-02T11:36:16.205Z,91.70
2018-09-02T11:38:44.399Z,91.30
2018-09-02T11:41:13.810Z,91.50
2018-09-02T11:43:42.895Z,92.00
2018-09-02T11:46:11.288Z,90.20
2018-09-02T11:48:41.523Z,91.40
2018-09-02T11:51:18.455Z,91.70
2018-09-02T11:53:47.263Z,91.80
2018-09-02T11:56:15.471Z,92.00
2018-09-02T11:58:43.603Z,91.50
2018-09-02T12:01:13.099Z,92.10
2018-09-02T12:03:41.194Z,90.10
2018-09-02T12:06:09.444Z,91.10
2018-09-02T12:08:37.623Z,89.60
2018-09-02T12:11:05.837Z,90.00
2018-09-02T12:13:34.118Z,91.20
2018-09-02T12:16:02.281Z,91.50
2018-09-02T12:18:30.546Z,91.50
2018-09-02T12:20:58.764Z,89.40
2018-09-02T12:23:26.954Z,89.60
2018-09-02T12:25:55.197Z,91.20
2018-09-02T12:28:23.282Z,90.30
2018-09-02T12:30:51.546Z,90.30
2018-09-02T12:33:19.709Z,90.50
2018-09-02T12:35:47.847Z,91.20
2018-09-02T12:38:15.930Z,90.00
2018-09-02T12:40:43.998Z,89.90
2018-09-02T12:43:12.126Z,90.20
2018-09-02T12:45:40.252Z,87.70
2018-09-02T12:48:09.428Z,88.90
2018-09-02T12:50:37.515Z,88.80
2018-09-02T12:53:05.614Z,89.70
2018-09-02T13:00:28.028Z,87.80
2018-09-02T13:02:56.129Z,87.70
2018-09-02T13:05:24.316Z,87.70
2018-09-02T13:07:52.472Z,86.80
2018-09-02T13:10:20.649Z,87.10
2018-09-02T13:12:48.863Z,88.10
2018-09-02T13:15:17.029Z,86.40
2018-09-02T13:17:45.208Z,85.40
2018-09-02T13:20:13.334Z,84.60
2018-09-02T13:22:42.407Z,86.10
2018-09-02T13:25:10.851Z,86.10
2018-09-02T13:27:39.011Z,87.20
2018-09-02T13:30:08.383Z,87.40
2018-09-02T13:32:36.722Z,86.80
2018-09-02T13:35:05.166Z,86.50
2018-09-02T13:37:33.263Z,86.40
2018-09-02T13:40:01.430Z,85.80
2018-09-02T13:42:29.591Z,83.70
2018-09-02T13:44:57.755Z,84.90
2018-09-02T13:47:26.145Z,86.00
2018-09-02T13:49:55.188Z,83.70
2018-09-02T13:52:23.304Z,84.50
2018-09-02T13:54:51.578Z,81.70
2018-09-02T13:57:19.746Z,81.40
2018-09-02T13:59:47.988Z,81.70
2018-09-02T14:02:16.304Z,77.50
2018-09-02T14:04:44.614Z,78.80
2018-09-02T14:07:12.779Z,78.90
2018-09-02T14:09:40.973Z,81.20
2018-09-02T14:12:09.095Z,81.40
2018-09-02T14:14:37.202Z,82.00
2018-09-02T14:17:05.447Z,80.80
2018-09-02T14:19:33.694Z,81.10
2018-09-02T14:22:01.787Z,80.20
2018-09-02T14:24:29.991Z,77.20
2018-09-02T14:26:58.128Z,77.50
2018-09-02T14:29:26.414Z,77.20
2018-09-02T14:31:54.567Z,78.50
2018-09-02T14:34:22.862Z,76.60
2018-09-02T14:36:51.063Z,77.10
2018-09-02T14:39:19.183Z,75.60
2018-09-02T14:41:47.338Z,76.70
2018-09-02T14:44:17.103Z,77.50
2018-09-02T14:46:45.272Z,73.90
2018-09-02T14:49:15.919Z,75.10
2018-09-02T14:51:46.376Z,75.20
2018-09-02T14:54:14.584Z,78.10
2018-09-02T14:56:44.348Z,81.10
2018-09-02T14:59:12.583Z,81.20
2018-09-02T15:01:43.471Z,81.10
2018-09-02T15:07:28.736Z,84.00
2018-09-02T15:09:58.004Z,85.10
2018-09-02T15:12:26.988Z,87.50
2018-09-02T15:19:45.192Z,88.70
2018-09-02T15:22:13.539Z,85.70
2018-09-02T15:25:09.311Z,87.90
2018-09-02T15:27:37.623Z,89.20
2018-09-02T15:30:06.824Z,89.20
2018-09-02T15:32:35.317Z,86.30
2018-09-02T15:35:04.300Z,88.20
2018-09-02T15:37:32.431Z,87.60
2018-09-02T15:40:00.595Z,85.00
2018-09-02T15:42:28.754Z,87.10
2018-09-02T15:44:57.226Z,87.40
2018-09-02T15:47:25.343Z,87.20
2018-09-02T15:49:53.508Z,88.50
2018-09-02T15:52:21.623Z,86.30
2018-09-02T15:54:49.834Z,85.60
2018-09-02T15:57:18.032Z,85.10
2018-09-02T15:59:46.141Z,85.10
2018-09-02T16:02:14.236Z,85.30
2018-09-02T16:04:42.707Z,86.40
2018-09-02T16:07:10.846Z,86.90
2018-09-02T16:09:39.719Z,87.00
2018-09-02T16:12:08.057Z,83.80
2018-09-02T16:14:36.179Z,86.50
2018-09-02T16:17:04.386Z,87.50
2018-09-02T16:19:32.485Z,88.40
2018-09-02T16:22:00.603Z,89.20
2018-09-02T16:24:28.754Z,88.90
2018-09-02T16:26:56.850Z,89.50
2018-09-02T16:29:24.988Z,89.00
2018-09-02T16:31:53.094Z,89.90
2018-09-02T16:34:21.226Z,88.60
2018-09-02T16:36:49.345Z,87.90
2018-09-02T16:39:17.477Z,87.70
2018-09-02T16:41:45.671Z,87.60
2018-09-02T16:44:13.800Z,85.70
2018-09-02T16:46:41.980Z,85.10
2018-09-02T16:49:10.106Z,85.30
2018-09-02T16:51:38.244Z,85.40
2018-09-02T16:54:06.407Z,85.60
2018-09-02T16:56:34.534Z,86.10
2018-09-02T16:59:02.808Z,87.20
2018-09-02T17:01:30.929Z,88.50
2018-09-02T17:04:01.438Z,88.20
2018-09-02T17:06:29.546Z,88.80
2018-09-02T17:08:57.735Z,89.40
2018-09-02T17:11:25.918Z,89.80
2018-09-02T17:13:54.040Z,90.30
2018-09-02T17:16:22.175Z,91.00
2018-09-02T17:18:52.791Z,91.10
2018-09-02T17:21:20.916Z,91.40
2018-09-02T17:23:49.006Z,91.80
2018-09-02T17:26:17.188Z,91.50
2018-09-02T17:28:45.208Z,92.20
2018-09-02T17:31:13.340Z,92.30
2018-09-02T17:33:41.416Z,92.20
2018-09-02T17:36:09.493Z,92.20
2018-09-02T17:38:37.853Z,91.70
2018-09-02T17:41:06.006Z,92.60
2018-09-02T17:43:34.691Z,91.70
2018-09-02T17:46:02.793Z,92.10
2018-09-02T17:48:31.618Z,91.80
2018-09-02T17:50:59.703Z,91.20
2018-09-02T17:53:27.866Z,90.60
2018-09-02T17:55:56.155Z,90.60
2018-09-02T17:58:24.976Z,90.10
2018-09-02T18:00:54.627Z,89.70
2018-09-02T18:03:22.763Z,90.00
2018-09-02T18:05:50.927Z,90.10
2018-09-02T18:08:19.076Z,90.40
2018-09-02T18:10:47.158Z,89.60
2018-09-02T18:13:15.330Z,89.00
2018-09-02T18:15:43.527Z,90.20
2018-09-02T18:18:11.638Z,90.10
2018-09-02T18:20:39.967Z,90.00
2018-09-02T18:23:08.079Z,89.80
2018-09-02T18:25:36.242Z,89.70
2018-09-02T18:28:06.912Z,90.00
2018-09-02T18:30:35.025Z,90.00
2018-09-02T18:33:03.150Z,90.10
2018-09-02T18:35:31.267Z,90.20
2018-09-02T18:37:59.397Z,90.40
2018-09-02T18:40:27.458Z,90.30
2018-09-02T18:42:55.534Z,90.40
2018-09-02T18:45:23.693Z,90.40
2018-09-02T18:47:51.719Z,90.40
2018-09-02T18:50:19.807Z,90.30
2018-09-02T18:52:47.912Z,90.40
2018-09-02T18:55:16.045Z,90.50
2018-09-02T18:57:44.134Z,90.50
2018-09-02T19:00:12.198Z,90.60
2018-09-02T19:02:40.315Z,90.60
2018-09-02T19:05:08.369Z,90.60
2018-09-02T19:07:36.537Z,90.70
2018-09-02T19:10:04.630Z,90.70
2018-09-02T19:12:32.725Z,90.80
2018-09-02T19:15:00.837Z,91.00
2018-09-02T19:17:28.934Z,91.30
2018-09-02T19:19:57.084Z,91.20
2018-09-02T19:22:25.230Z,90.10
2018-09-02T19:24:53.644Z,90.60
2018-09-02T19:27:21.963Z,90.00
2018-09-02T19:29:50.204Z,90.60
2018-09-02T19:32:19.607Z,91.10
2018-09-02T19:34:47.719Z,90.80
2018-09-02T19:37:15.808Z,91.00
2018-09-02T19:39:44.117Z,91.10
2018-09-02T19:42:13.241Z,91.40
2018-09-02T19:44:41.567Z,91.20
2018-09-02T19:47:09.701Z,91.00
2018-09-02T19:49:37.895Z,91.20
2018-09-02T19:52:06.244Z,91.10
2018-09-02T19:54:34.383Z,91.10
2018-09-02T19:57:02.743Z,91.10
2018-09-02T19:59:30.986Z,91.90
2018-09-02T20:01:59.140Z,91.30
2018-09-02T20:04:27.274Z,91.80
2018-09-02T20:06:55.454Z,92.00
2018-09-02T20:09:23.651Z,92.10
2018-09-02T20:11:51.746Z,91.60
2018-09-02T20:14:20.023Z,92.00
2018-09-02T20:16:48.425Z,92.00
2018-09-02T20:19:17.038Z,91.40
2018-09-02T20:21:45.199Z,91.30
2018-09-02T20:24:13.634Z,92.10
2018-09-02T20:26:41.790Z,91.90
2018-09-02T20:29:10.048Z,92.10
2018-09-02T20:31:38.274Z,91.90
2018-09-02T20:34:08.560Z,92.00
2018-09-02T20:36:36.816Z,92.20
2018-09-02T20:39:07.709Z,92.10
2018-09-02T20:41:35.843Z,92.30
2018-09-02T20:44:04.039Z,92.40
2018-09-02T20:46:32.170Z,92.40
2018-09-02T20:49:00.275Z,92.60
2018-09-02T20:51:28.554Z,93.00
2018-09-02T20:53:56.771Z,92.30
2018-09-02T20:56:25.114Z,92.80
2018-09-02T20:58:53.334Z,93.30
2018-09-02T21:03:58.833Z,93.10
2018-09-02T21:06:27.359Z,93.10
2018-09-02T21:08:55.446Z,93.30
2018-09-02T21:11:23.803Z,93.30
2018-09-02T21:13:52.290Z,93.10
2018-09-02T21:16:20.749Z,93.20
2018-09-02T21:18:49.212Z,93.20
2018-09-02T21:21:17.608Z,93.00
2018-09-02T21:23:45.791Z,93.10
2018-09-02T21:26:14.038Z,93.30
2018-09-02T21:28:42.321Z,92.90
2018-09-02T21:31:10.699Z,93.20
2018-09-02T21:33:38.768Z,93.40
2018-09-02T21:36:07.072Z,93.00
2018-09-02T21:38:35.800Z,93.20
2018-09-02T21:41:04.259Z,93.20
2018-09-02T21:43:32.554Z,92.90
2018-09-02T21:46:01.009Z,92.70
2018-09-02T21:48:29.380Z,93.00
2018-09-02T21:50:57.579Z,93.00
2018-09-02T21:53:25.817Z,92.80
2018-09-02T21:55:54.004Z,92.70
2018-09-02T21:58:22.199Z,92.60
2018-09-02T22:00:50.427Z,92.90
2018-09-02T22:03:18.635Z,93.10
2018-09-02T22:05:46.881Z,93.00
2018-09-02T22:08:15.467Z,93.30
2018-09-02T22:10:43.632Z,92.80
2018-09-02T22:13:12.223Z,92.70
2018-09-02T22:15:40.612Z,92.80
2018-09-02T22:18:09.565Z,92.70
2018-09-02T22:20:37.857Z,92.70
2018-09-02T22:23:06.338Z,92.60
2018-09-02T22:25:34.701Z,92.70
2018-09-02T22:28:02.852Z,92.70
2018-09-02T22:30:31.543Z,92.50
2018-09-02T22:32:59.880Z,92.60
2018-09-02T22:35:28.130Z,92.60
2018-09-02T22:37:56.518Z,92.80
2018-09-02T22:40:24.800Z,92.60
2018-09-02T22:42:53.446Z,92.70
2018-09-02T22:45:21.693Z,92.80
2018-09-02T22:47:50.039Z,92.60
2018-09-02T22:50:18.240Z,92.90
2018-09-02T22:52:46.447Z,92.90
2018-09-02T22:55:15.625Z,92.80
2018-09-02T22:57:43.890Z,92.80
2018-09-02T23:00:12.059Z,92.70
2018-09-02T23:02:40.397Z,92.80
2018-09-02T23:05:09.258Z,92.80
2018-09-02T23:07:37.720Z,92.80
2018-09-02T23:10:06.152Z,92.70
2018-09-02T23:12:34.478Z,93.10
2018-09-02T23:15:02.784Z,93.10
2018-09-02T23:17:33.021Z,92.80
2018-09-02T23:20:01.324Z,92.80
2018-09-02T23:22:29.430Z,92.90
2018-09-02T23:24:57.730Z,93.20
2018-09-02T23:27:25.907Z,93.30
2018-09-02T23:29:54.073Z,93.70
2018-09-02T23:32:22.278Z,92.90
2018-09-02T23:34:50.352Z,92.40
2018-09-02T23:37:18.490Z,92.40
2018-09-02T23:39:46.577Z,92.50
2018-09-02T23:42:14.679Z,92.20
2018-09-02T23:44:43.166Z,92.10
2018-09-02T23:47:11.306Z,92.00
2018-09-02T23:49:39.414Z,91.90
2018-09-02T23:52:07.486Z,91.90
2018-09-02T23:54:35.574Z,91.80
2018-09-02T23:57:03.788Z,91.80
2018-09-02T23:59:31.868Z,91.80
